• Join FlightAware (Why Join?)
  • Login
  • US Flag GB Flag 
19:21 EST


 

Airport Tracker/Info


-or-


 

Live Flight TrackerFlight Track Log ✈ SWA303 ✈ 11-Apr-2013 ✈ KSNA - KOAK

Flight Track Log - Related Links

Times and Time Zones

All times are in EDT time to prevent confusion due to time zone crossing. See the SWA303 flight status page for this flight to view local times or setup timezone preferences in your user account.

Time Position Orientation Groundspeed Altitude Reporting Facility
EDT Latitude Longitude Course Direction KTS MPH feet Rate Location/Type
23:51 33.6333 -117.8833 320° Northwest 143 165 2,500  Level Southern California TRACON
23:52 33.5833 -117.9000 196° South 193 222 4,200 2,000 Climbing Southern California TRACON
23:53 33.5178 -117.9456 210° Southwest 261 300 6,700 2,835 Climbing Los Angeles Center
23:54 33.4650 -117.9900 215° Southwest 279 321 10,200 3,707 Climbing Los Angeles Center
23:55 33.4511 -118.0917 261° West 334 384 14,300 4,258 Climbing Los Angeles Center
23:56 34.1296 -118.3275 320° Northwest  Level Estimated
23:56 33.5003 -118.2128 296° West 358 412 19,000  Level Los Angeles Center
23:57 33.5950 -118.2633 336° Northwest 369 425 22,800 3,387 Climbing Los Angeles Center
23:58 33.7108 -118.3203 338° Northwest 389 448 26,000 2,758 Climbing Los Angeles Center
23:59 33.8178 -118.3739 337° Northwest 408 470 28,500 2,341 Climbing Los Angeles Center
00:00 33.9242 -118.4281 337° Northwest 426 490 30,800 2,390 Climbing Los Angeles Center
00:01 34.0367 -118.4836 338° Northwest 434 499 33,400 2,516 Climbing Los Angeles Center
00:02 34.1461 -118.5364 338° Northwest 428 493 36,000 2,565 Climbing Los Angeles Center
00:03 34.2744 -118.6003 338° Northwest 418 481 38,700 1,951 Climbing Los Angeles Center
00:04 34.3794 -118.6519 338° Northwest 409 471 40,000 634 Climbing Los Angeles Center
00:05 34.4864 -118.7039 338° Northwest 413 475 40,000  Level Los Angeles Center
00:06 34.5911 -118.7578 337° Northwest 411 473 40,000  Level Los Angeles Center
00:07 34.6975 -118.8092 338° Northwest 413 475 40,000  Level Los Angeles Center
00:08 34.8014 -118.8631 337° Northwest 409 471 40,000  Level Los Angeles Center
00:09 34.8994 -118.9572 322° Northwest 396 456 40,000  Level Los Angeles Center
00:10 34.9756 -119.0314 321° Northwest 388 447 40,000  Level Los Angeles Center
00:11 35.0781 -119.1303 322° Northwest 391 450 40,000  Level Los Angeles Center
00:12 35.1644 -119.2139 322° Northwest 397 457 40,000  Level Los Angeles Center
00:13 35.2500 -119.2964 322° Northwest 396 456 40,000  Level Los Angeles Center
00:14 35.3353 -119.3817 321° Northwest 397 457 40,000  Level Los Angeles Center
00:15 35.3842 -119.4303 321° Northwest 395 455 40,000  Level Oakland Center
00:16 35.4692 -119.5150 321° Northwest 396 456 40,000  Level Oakland Center
00:17 35.5550 -119.5989 322° Northwest 396 456 40,000  Level Oakland Center
00:18 35.6414 -119.6853 321° Northwest 401 461 40,000  Level Oakland Center
00:19 35.7275 -119.7714 321° Northwest 402 463 40,000  Level Oakland Center
00:20 35.8150 -119.8586 321° Northwest 405 466 40,000  Level Oakland Center
00:21 35.9008 -119.9453 321° Northwest 403 464 40,000  Level Oakland Center
00:22 35.9867 -120.0325 321° Northwest 402 463 40,000  Level Oakland Center
00:23 36.0911 -120.1406 320° Northwest 411 473 40,000  Level Oakland Center
00:24 36.1764 -120.2261 321° Northwest 398 458 40,000  Level Oakland Center
00:25 36.2611 -120.3133 320° Northwest 398 458 40,000 -541 Level Oakland Center
00:26 36.3453 -120.4003 320° Northwest 395 455 38,900 -1,869 Descending Oakland Center
00:27 36.4275 -120.4842 321° Northwest 386 444 36,200 -2,607 Descending Oakland Center
00:28 36.5083 -120.5608 323° Northwest 370 426 33,600 -2,361 Descending Oakland Center
00:29 36.5872 -120.6469 319° Northwest 378 435 31,400 -2,164 Descending Oakland Center
00:30 36.6650 -120.7283 320° Northwest 368 423 29,200 -2,182 Descending Oakland Center
00:31 36.7403 -120.8075 320° Northwest 356 410 27,000 -2,132 Descending Oakland Center
00:32 36.8097 -120.8847 318° Northwest 340 391 24,900 -2,066 Descending Oakland Center
00:33 36.8797 -120.9636 318° Northwest 332 382 22,800 -2,016 Descending Oakland Center
00:34 36.9453 -121.0386 318° Northwest 321 369 20,800 -1,967 Descending Oakland Center
00:35 37.0103 -121.1142 317° Northwest 317 365 18,800 -2,066 Descending Oakland Center
00:36 37.0808 -121.1950 318° Northwest 310 357 16,600 -1,869 Descending Oakland Center
00:37 37.1369 -121.2583 318° Northwest 305 351 15,000 -1,721 Descending Oakland Center
00:38 37.1978 -121.3311 316° Northwest 303 349 13,100 -2,033 Descending Oakland Center
00:39 37.2700 -121.4150 317° Northwest 295 339 10,900 -1,537 Descending Oakland Center
00:40 37.3292 -121.4842 317° Northwest 291 335 10,000 -885 Descending Oakland Center
00:41 37.3800 -121.5444 317° Northwest 282 325 9,100 -988 Descending Oakland Center
00:42 37.4167 -121.5833 320° Northwest 272 313 8,600 -1,084 Descending Northern Cal TRACON
00:43 37.4667 -121.6500 313° West 269 310 7,600 -1,000 Descending Northern Cal TRACON
00:43 37.5000 -121.7167 302° West 269 310 6,700 -793 Descending Northern Cal TRACON
00:45 37.5333 -121.8167 293° West 248 285 6,000 -336 Descending Northern Cal TRACON
00:46 37.5500 -121.8833 288° West 217 250 6,000 -605 Level Northern Cal TRACON
00:47 37.5667 -121.9500 288° West 219 252 4,800 -1,091 Descending Northern Cal TRACON
00:48 37.6000 -122.0167 302° West 214 246 3,800 -1,041 Descending Northern Cal TRACON
00:49 37.6167 -122.0833 288° West 193 222 2,700 -1,049 Descending Northern Cal TRACON
00:49 37.6339 -122.1181 302° West 195 224 2,000 -865 Descending Oakland Center
00:50 37.6617 -122.1558 313° West 164 189 1,200 -738 Descending Oakland Center
00:51 37.6856 -122.1908 311° West 146 168 500 9,246 Descending Oakland Center
00:52 37.7069 -122.2231 310° West 133 153 20,000 19,180 Climbing Oakland Center
00:54 37.7167 -122.2167 270° West  Level FlightAware Approximate
01:01 37.7213 -122.2207 270° West  Level Estimated